Time;durP1;ratioP1;P1;durP2;ratioP2;P2;SDS_P1;SDS_P2;PMS_P1;PMS_P2;Temp;Humidity;BMP_temperature;BMP_pressure;BME280_temperature;BME280_humidity;BME280_pressure;Samples;Min_cycle;Max_cycle;Signal;HPM_P1;HPM_P2
2022/07/15 00:00:34;;;;;;;0.00;0.00;;;11.20;99.90;;;;;;5072337;28;20067;-74
2022/07/15 00:03:00;;;;;;;0.32;0.25;;;11.20;99.90;;;;;;5073173;28;20045;-75
2022/07/15 00:05:26;;;;;;;0.10;0.10;;;11.30;99.90;;;;;;5072596;28;20033;-74
2022/07/15 00:07:52;;;;;;;2.13;1.02;;;11.20;99.90;;;;;;5072129;28;20121;-75
2022/07/15 00:10:18;;;;;;;0.00;0.00;;;11.30;99.90;;;;;;5073053;28;20045;-74
2022/07/15 00:12:52;;;;;;;0.00;0.00;;;11.30;99.90;;;;;;5071345;28;20051;-75
2022/07/15 00:15:21;;;;;;;0.10;0.10;;;11.30;99.90;;;;;;5066970;28;20044;-75
2022/07/15 00:17:47;;;;;;;0.10;0.10;;;11.40;99.90;;;;;;5055324;28;20049;-76
2022/07/15 00:20:14;;;;;;;0.15;0.15;;;11.40;99.90;;;;;;5055408;28;20505;-75
2022/07/15 00:22:41;;;;;;;0.50;0.50;;;11.40;99.90;;;;;;5055037;28;20072;-75
2022/07/15 00:25:08;;;;;;;0.00;0.00;;;11.50;99.90;;;;;;5055314;28;20059;-75
2022/07/15 00:27:34;;;;;;;1.75;0.20;;;11.50;99.90;;;;;;5055223;28;20415;-75
2022/07/15 00:30:00;;;;;;;0.10;0.10;;;11.60;99.90;;;;;;5054906;28;20069;-74
2022/07/15 00:32:26;;;;;;;0.00;0.00;;;11.60;99.90;;;;;;5055084;28;20048;-75
2022/07/15 00:34:51;;;;;;;0.00;0.00;;;11.70;99.90;;;;;;5055048;28;20112;-75
2022/07/15 00:37:17;;;;;;;0.00;0.00;;;11.70;99.90;;;;;;5054884;28;20178;-76
2022/07/15 00:39:43;;;;;;;0.00;0.00;;;11.80;99.90;;;;;;5055070;28;20049;-74
2022/07/15 00:42:11;;;;;;;0.00;0.00;;;11.80;99.90;;;;;;5055094;28;20045;-75
2022/07/15 00:44:37;;;;;;;0.08;0.08;;;11.90;99.90;;;;;;5054719;28;20146;-74
2022/07/15 00:47:04;;;;;;;0.13;0.13;;;11.90;99.90;;;;;;5054713;28;20041;-75
2022/07/15 00:49:29;;;;;;;0.00;0.00;;;12.00;99.90;;;;;;5054952;28;20044;-75
2022/07/15 00:51:57;;;;;;;0.17;0.10;;;12.00;99.90;;;;;;5054790;28;20115;-74
2022/07/15 00:54:26;;;;;;;0.00;0.00;;;12.00;99.90;;;;;;5054633;28;20123;-74
2022/07/15 00:56:56;;;;;;;0.28;0.25;;;12.10;99.90;;;;;;5052847;28;20045;-74
2022/07/15 00:59:25;;;;;;;0.00;0.00;;;12.10;99.90;;;;;;5054484;28;20036;-75
2022/07/15 01:01:52;;;;;;;0.00;0.00;;;12.10;99.90;;;;;;5054240;28;20080;-75
2022/07/15 01:04:20;;;;;;;0.00;0.00;;;12.10;99.90;;;;;;5053565;28;20664;-75
2022/07/15 01:06:46;;;;;;;0.10;0.10;;;12.20;99.90;;;;;;5054029;28;20079;-74
2022/07/15 01:09:14;;;;;;;0.10;0.10;;;12.10;99.90;;;;;;5036595;28;20484;-76
2022/07/15 01:11:40;;;;;;;0.00;0.00;;;12.20;99.90;;;;;;5054214;28;20099;-75
2022/07/15 01:14:08;;;;;;;0.00;0.00;;;12.20;99.90;;;;;;5053652;28;20044;-75
2022/07/15 01:16:33;;;;;;;0.00;0.00;;;12.10;99.90;;;;;;5053374;28;20458;-75
2022/07/15 01:18:59;;;;;;;0.03;0.03;;;12.00;99.90;;;;;;5053812;28;20124;-75
2022/07/15 01:21:25;;;;;;;0.00;0.00;;;11.80;99.90;;;;;;5054137;28;20095;-75
2022/07/15 01:23:50;;;;;;;3.08;0.55;;;11.70;99.90;;;;;;5053839;28;20081;-75
2022/07/15 01:26:16;;;;;;;0.00;0.00;;;11.50;99.90;;;;;;5053820;28;20493;-75
2022/07/15 01:28:43;;;;;;;0.00;0.00;;;11.60;99.90;;;;;;5053681;28;20053;-75
2022/07/15 01:31:09;;;;;;;0.00;0.00;;;11.30;99.90;;;;;;5053783;28;20083;-74
2022/07/15 01:33:36;;;;;;;0.13;0.13;;;11.10;99.90;;;;;;5054043;28;20117;-76
2022/07/15 01:36:02;;;;;;;0.57;0.15;;;11.00;99.90;;;;;;5053506;28;20044;-76
2022/07/15 01:38:28;;;;;;;0.00;0.00;;;10.90;99.90;;;;;;5053018;28;20418;-75
2022/07/15 01:40:55;;;;;;;0.00;0.00;;;10.90;99.90;;;;;;5054141;28;20585;-75
2022/07/15 01:43:21;;;;;;;0.75;0.75;;;10.80;99.90;;;;;;5054875;28;20045;-75
2022/07/15 01:45:47;;;;;;;0.25;0.25;;;10.90;99.90;;;;;;5054385;28;20442;-75
2022/07/15 01:51:00;;;;;;;1.25;0.65;;;10.90;99.90;;;;;;5054162;28;20416;-74
2022/07/15 01:53:27;;;;;;;0.00;0.00;;;11.00;99.90;;;;;;5053512;28;20128;-75
2022/07/15 01:55:53;;;;;;;0.43;0.43;;;11.10;99.90;;;;;;5178025;22;20086;-77
2022/07/15 01:58:19;;;;;;;0.40;0.40;;;11.20;99.90;;;;;;5003499;28;20046;-74
2022/07/15 02:00:45;;;;;;;1.95;1.45;;;11.30;99.90;;;;;;4998572;28;20389;-74
2022/07/15 02:03:11;;;;;;;0.20;0.20;;;11.30;99.90;;;;;;5012242;28;20041;-75
2022/07/15 02:05:37;;;;;;;0.00;0.00;;;11.30;99.90;;;;;;5002670;28;20050;-75
2022/07/15 02:08:03;;;;;;;0.00;0.00;;;11.40;99.90;;;;;;5009109;28;20073;-75
2022/07/15 02:10:41;;;;;;;0.10;0.10;;;11.50;99.90;;;;;;5013106;28;20042;-74
2022/07/15 02:13:10;;;;;;;0.00;0.00;;;11.60;99.90;;;;;;5011722;28;20053;-75
2022/07/15 02:15:36;;;;;;;0.00;0.00;;;11.60;99.90;;;;;;5001380;28;20053;-74
2022/07/15 02:18:02;;;;;;;0.00;0.00;;;11.60;99.90;;;;;;5012488;28;20493;-74
2022/07/15 02:20:28;;;;;;;0.00;0.00;;;11.50;99.90;;;;;;5013012;28;20049;-74
2022/07/15 02:22:57;;;;;;;0.00;0.00;;;11.40;99.90;;;;;;5012884;28;20038;-74
2022/07/15 02:25:26;;;;;;;0.05;0.05;;;11.30;99.90;;;;;;5012586;28;20100;-74
2022/07/15 02:27:56;;;;;;;0.40;0.10;;;11.20;99.90;;;;;;5012825;28;20057;-74
2022/07/15 02:30:26;;;;;;;0.00;0.00;;;11.10;99.90;;;;;;5008047;28;20057;-74
2022/07/15 02:32:52;;;;;;;0.00;0.00;;;10.80;99.90;;;;;;4991958;28;20104;-74
2022/07/15 02:35:18;;;;;;;0.10;0.10;;;10.70;99.90;;;;;;4999276;28;20124;-74
2022/07/15 02:37:44;;;;;;;3.40;0.95;;;10.60;99.90;;;;;;5012327;28;20048;-74
2022/07/15 02:40:10;;;;;;;0.00;0.00;;;10.40;99.90;;;;;;5013025;28;20140;-74
2022/07/15 02:42:36;;;;;;;0.00;0.00;;;10.30;99.90;;;;;;5012856;28;20057;-74
2022/07/15 02:45:03;;;;;;;0.20;0.20;;;10.20;99.90;;;;;;5012350;28;20045;-74
2022/07/15 02:47:29;;;;;;;0.00;0.00;;;10.10;99.90;;;;;;5012668;28;20041;-74
2022/07/15 02:49:55;;;;;;;0.00;0.00;;;10.00;99.90;;;;;;5012614;28;20399;-74
2022/07/15 02:52:20;;;;;;;0.08;0.08;;;9.90;99.90;;;;;;5012584;28;20060;-74
2022/07/15 02:54:46;;;;;;;0.00;0.00;;;9.90;99.90;;;;;;5012295;28;20050;-74
2022/07/15 02:57:11;;;;;;;0.00;0.00;;;9.80;99.90;;;;;;5025107;28;20045;-74
2022/07/15 02:59:37;;;;;;;0.00;0.00;;;9.70;99.90;;;;;;5032459;28;20050;-75
2022/07/15 03:02:02;;;;;;;0.00;0.00;;;9.70;99.90;;;;;;5032140;28;20599;-74
2022/07/15 03:04:28;;;;;;;0.00;0.00;;;10.10;99.90;;;;;;5026641;28;20054;-75
2022/07/15 03:06:54;;;;;;;0.00;0.00;;;9.70;99.90;;;;;;5029946;28;20041;-75
2022/07/15 03:09:19;;;;;;;0.00;0.00;;;9.70;99.90;;;;;;5031150;28;20085;-74
2022/07/15 03:11:45;;;;;;;0.00;0.00;;;9.60;99.90;;;;;;5032346;28;20048;-75
2022/07/15 03:14:11;;;;;;;0.00;0.00;;;9.50;99.90;;;;;;5032137;28;20064;-74
2022/07/15 03:16:36;;;;;;;0.00;0.00;;;9.50;99.90;;;;;;5031255;28;20098;-74
2022/07/15 03:19:02;;;;;;;0.00;0.00;;;9.40;99.90;;;;;;5032189;28;20097;-74
2022/07/15 03:21:28;;;;;;;0.00;0.00;;;9.40;99.90;;;;;;5034684;28;20042;-74
2022/07/15 03:23:54;;;;;;;0.20;0.20;;;9.40;99.90;;;;;;5035641;28;20049;-74
2022/07/15 03:26:20;;;;;;;0.00;0.00;;;9.40;99.90;;;;;;5022370;28;20060;-74
2022/07/15 03:28:46;;;;;;;0.00;0.00;;;9.40;99.90;;;;;;5016192;28;20065;-74
2022/07/15 03:31:12;;;;;;;0.00;0.00;;;9.40;99.90;;;;;;5016111;28;20442;-74
2022/07/15 03:33:38;;;;;;;0.10;0.10;;;9.50;99.90;;;;;;5015811;28;20497;-74
2022/07/15 03:36:05;;;;;;;0.05;0.05;;;9.50;99.90;;;;;;5026636;28;20103;-75
2022/07/15 03:38:30;;;;;;;2.30;0.35;;;9.60;99.90;;;;;;5035451;28;20045;-74
2022/07/15 03:40:56;;;;;;;0.10;0.10;;;9.70;99.90;;;;;;5035696;28;20042;-74
2022/07/15 03:43:23;;;;;;;0.00;0.00;;;9.80;99.90;;;;;;5035396;28;20132;-74
2022/07/15 03:45:49;;;;;;;1.77;0.32;;;9.70;99.90;;;;;;5034801;28;20210;-74
2022/07/15 03:48:15;;;;;;;0.00;0.00;;;9.70;99.90;;;;;;5035406;28;20128;-74
2022/07/15 03:50:40;;;;;;;0.00;0.00;;;9.60;99.90;;;;;;5035264;28;20135;-75
2022/07/15 03:53:06;;;;;;;0.00;0.00;;;9.50;99.90;;;;;;5035394;28;20122;-75
2022/07/15 03:55:31;;;;;;;0.00;0.00;;;9.60;99.90;;;;;;5034919;28;20038;-74
2022/07/15 03:57:57;;;;;;;0.00;0.00;;;9.60;99.90;;;;;;5028483;28;20058;-74
2022/07/15 04:00:23;;;;;;;0.00;0.00;;;9.70;99.90;;;;;;5015521;28;20089;-74
2022/07/15 04:02:48;;;;;;;0.32;0.32;;;9.90;99.90;;;;;;5015350;28;20049;-76
2022/07/15 04:05:14;;;;;;;0.15;0.03;;;10.00;99.90;;;;;;5017616;28;20030;-74
2022/07/15 04:07:40;;;;;;;0.57;0.57;;;10.20;99.90;;;;;;5035199;28;20504;-75
2022/07/15 04:10:06;;;;;;;0.00;0.00;;;10.30;99.90;;;;;;5033436;28;20044;-74
2022/07/15 04:12:32;;;;;;;0.10;0.08;;;10.40;99.90;;;;;;5035122;28;20050;-74
2022/07/15 04:14:57;;;;;;;0.10;0.10;;;10.50;99.90;;;;;;5034380;28;20037;-74
2022/07/15 04:17:23;;;;;;;0.43;0.38;;;10.60;99.90;;;;;;4994851;28;20559;-74
2022/07/15 04:19:48;;;;;;;0.00;0.00;;;10.70;99.90;;;;;;5002060;28;20064;-74
2022/07/15 04:22:14;;;;;;;0.00;0.00;;;10.80;99.90;;;;;;5014863;28;20037;-74
2022/07/15 04:24:39;;;;;;;0.00;0.00;;;10.90;99.90;;;;;;5014904;28;20046;-74
2022/07/15 04:27:05;;;;;;;0.00;0.00;;;11.00;99.90;;;;;;5015197;28;20054;-74
2022/07/15 04:29:31;;;;;;;0.10;0.10;;;11.10;99.90;;;;;;5014921;28;20042;-75
2022/07/15 04:31:56;;;;;;;0.00;0.00;;;11.20;99.90;;;;;;5014447;28;20125;-74
2022/07/15 04:34:22;;;;;;;13.63;0.80;;;11.30;99.90;;;;;;5014654;28;20096;-77
2022/07/15 04:36:48;;;;;;;0.00;0.00;;;11.40;99.90;;;;;;5027908;28;20038;-74
2022/07/15 04:39:13;;;;;;;0.00;0.00;;;11.70;99.90;;;;;;5034532;28;20045;-76
2022/07/15 04:41:39;;;;;;;0.00;0.00;;;11.70;99.90;;;;;;5034701;28;20044;-74
2022/07/15 04:44:04;;;;;;;11.70;0.35;;;11.80;99.90;;;;;;5023625;28;20505;-74
2022/07/15 04:46:30;;;;;;;0.50;0.50;;;11.90;99.90;;;;;;5025076;28;20519;-74
2022/07/15 04:51:53;;;;;;;0.00;0.00;;;12.20;99.90;;;;;;4990101;28;20496;-74
2022/07/15 04:54:19;;;;;;;0.00;0.00;;;12.40;99.90;;;;;;5034185;28;20056;-74
2022/07/15 04:56:45;;;;;;;0.30;0.22;;;12.70;99.90;;;;;;5021074;28;20046;-74
2022/07/15 04:59:10;;;;;;;0.00;0.00;;;13.30;99.90;;;;;;5011112;28;20091;-74
2022/07/15 05:01:36;;;;;;;0.00;0.00;;;14.00;99.90;;;;;;5011346;28;20058;-75
2022/07/15 05:04:01;;;;;;;0.00;0.00;;;14.70;99.90;;;;;;5009703;28;20054;-75
2022/07/15 05:06:27;;;;;;;0.00;0.00;;;14.90;99.90;;;;;;5019586;28;20041;-75
2022/07/15 05:08:53;;;;;;;0.00;0.00;;;15.10;99.90;;;;;;5030522;28;20052;-75
2022/07/15 05:11:18;;;;;;;4.47;1.45;;;15.60;99.90;;;;;;5030535;28;20045;-75
2022/07/15 05:13:44;;;;;;;0.00;0.00;;;16.40;99.90;;;;;;5029185;28;20049;-75
2022/07/15 05:16:10;;;;;;;0.10;0.10;;;15.80;99.90;;;;;;5029341;28;20496;-75
2022/07/15 05:18:37;;;;;;;0.57;0.47;;;15.50;99.90;;;;;;5030525;28;20041;-75
2022/07/15 05:21:03;;;;;;;0.30;0.25;;;15.30;99.90;;;;;;5030752;28;20484;-75
2022/07/15 05:23:29;;;;;;;0.00;0.00;;;14.80;99.90;;;;;;5030404;28;20530;-75
2022/07/15 05:25:54;;;;;;;0.00;0.00;;;14.60;99.90;;;;;;5026361;28;20042;-74
2022/07/15 05:28:20;;;;;;;0.08;0.03;;;14.40;99.90;;;;;;5016541;28;20133;-74
2022/07/15 05:30:46;;;;;;;0.00;0.00;;;14.20;99.90;;;;;;5013474;28;20128;-75
2022/07/15 05:33:12;;;;;;;0.00;0.00;;;14.10;99.90;;;;;;5013712;28;20049;-74
2022/07/15 05:35:38;;;;;;;1.65;0.08;;;14.00;99.90;;;;;;5013725;28;20501;-74
2022/07/15 05:38:03;;;;;;;0.00;0.00;;;13.90;99.90;;;;;;5013480;28;20049;-74
2022/07/15 05:40:29;;;;;;;0.00;0.00;;;13.90;99.90;;;;;;5013755;28;20045;-74
2022/07/15 05:42:55;;;;;;;0.10;0.10;;;13.80;99.90;;;;;;5012936;28;20049;-74
2022/07/15 05:45:20;;;;;;;1.60;1.02;;;13.80;99.90;;;;;;5013550;28;20046;-74
2022/07/15 05:47:48;;;;;;;0.30;0.30;;;13.80;99.90;;;;;;5013564;28;20515;-74
2022/07/15 05:50:13;;;;;;;0.00;0.00;;;13.80;99.90;;;;;;5013531;28;20059;-76
2022/07/15 05:52:39;;;;;;;0.00;0.00;;;13.90;99.90;;;;;;5013251;28;20038;-76
2022/07/15 05:55:05;;;;;;;0.00;0.00;;;14.00;99.90;;;;;;5013514;28;20128;-76
2022/07/15 05:57:32;;;;;;;0.00;0.00;;;14.10;99.90;;;;;;5013191;28;20049;-76
2022/07/15 05:59:58;;;;;;;0.17;0.15;;;14.30;99.90;;;;;;5013158;28;20049;-75
2022/07/15 06:02:23;;;;;;;0.00;0.00;;;14.60;99.90;;;;;;5013286;28;20417;-74
2022/07/15 06:04:49;;;;;;;1.25;0.28;;;15.00;99.90;;;;;;5012921;28;20179;-74
2022/07/15 06:07:14;;;;;;;0.20;0.20;;;15.40;99.90;;;;;;5012970;28;20042;-74
2022/07/15 06:09:40;;;;;;;0.13;0.13;;;15.80;99.90;;;;;;5013176;28;20045;-76
2022/07/15 06:12:06;;;;;;;0.00;0.00;;;16.30;99.90;;;;;;5013225;28;20084;-76
2022/07/15 06:14:31;;;;;;;0.00;0.00;;;16.90;99.90;;;;;;5013125;28;20492;-76
2022/07/15 06:16:57;;;;;;;0.00;0.00;;;18.00;99.90;;;;;;5013282;28;20046;-76
2022/07/15 06:19:22;;;;;;;0.00;0.00;;;18.20;99.90;;;;;;5013131;28;20041;-74
2022/07/15 06:21:48;;;;;;;0.00;0.00;;;17.90;99.90;;;;;;5013041;28;20412;-74
2022/07/15 06:24:14;;;;;;;0.00;0.00;;;17.60;99.90;;;;;;5012911;28;20484;-74
2022/07/15 06:26:39;;;;;;;1.65;0.35;;;17.40;99.90;;;;;;5012936;28;20077;-74
2022/07/15 06:29:05;;;;;;;0.00;0.00;;;17.40;99.90;;;;;;5010744;28;20046;-74
2022/07/15 06:31:30;;;;;;;0.00;0.00;;;17.60;99.90;;;;;;5010081;28;20084;-75
2022/07/15 06:33:59;;;;;;;0.00;0.00;;;17.80;99.90;;;;;;5010558;28;20034;-76
2022/07/15 06:36:25;;;;;;;0.00;0.00;;;18.00;99.90;;;;;;5009998;28;20054;-76
2022/07/15 06:38:50;;;;;;;0.00;0.00;;;18.00;99.90;;;;;;5009825;28;20088;-77
2022/07/15 06:41:16;;;;;;;0.00;0.00;;;18.10;99.90;;;;;;5010798;28;20115;-77
2022/07/15 06:43:44;;;;;;;0.00;0.00;;;17.90;99.90;;;;;;5010082;28;20046;-76
2022/07/15 06:46:09;;;;;;;0.10;0.10;;;17.60;99.90;;;;;;5010389;28;20049;-76
2022/07/15 06:48:35;;;;;;;0.00;0.00;;;17.20;99.90;;;;;;5010117;28;20050;-76
2022/07/15 06:51:01;;;;;;;8.30;0.45;;;17.00;99.90;;;;;;5010098;28;20056;-76
2022/07/15 06:53:26;;;;;;;0.10;0.10;;;16.90;99.90;;;;;;5009668;28;20042;-76
2022/07/15 06:55:52;;;;;;;0.00;0.00;;;16.70;99.90;;;;;;5012854;28;20398;-76
2022/07/15 06:58:17;;;;;;;0.00;0.00;;;16.70;99.90;;;;;;5013718;28;20080;-76
2022/07/15 07:00:43;;;;;;;0.00;0.00;;;16.80;99.90;;;;;;5013964;28;20201;-76
2022/07/15 07:03:09;;;;;;;0.00;0.00;;;16.80;99.90;;;;;;5014164;28;20573;-76
2022/07/15 07:05:34;;;;;;;0.00;0.00;;;17.10;99.90;;;;;;5014123;28;20041;-76
2022/07/15 07:08:00;;;;;;;0.00;0.00;;;18.10;99.90;;;;;;5013744;28;20084;-76
2022/07/15 07:10:26;;;;;;;0.00;0.00;;;18.80;99.90;;;;;;5013944;28;20100;-76
2022/07/15 07:12:52;;;;;;;0.30;0.10;;;19.90;99.90;;;;;;5016253;28;20064;-76
2022/07/15 07:15:19;;;;;;;0.00;0.00;;;20.60;99.90;;;;;;5016499;28;20042;-76
2022/07/15 07:17:44;;;;;;;0.20;0.20;;;20.20;99.90;;;;;;5015662;28;20049;-77
2022/07/15 07:20:10;;;;;;;0.00;0.00;;;19.60;99.90;;;;;;5016412;28;20041;-76
2022/07/15 07:22:36;;;;;;;0.00;0.00;;;19.60;99.90;;;;;;5016174;28;20061;-76
2022/07/15 07:25:02;;;;;;;0.00;0.00;;;19.40;99.90;;;;;;5016652;28;20433;-75
2022/07/15 07:27:27;;;;;;;0.43;0.30;;;19.90;95.10;;;;;;5016242;28;20489;-76
2022/07/15 07:29:53;;;;;;;0.00;0.00;;;20.80;95.70;;;;;;5016182;28;20053;-76
2022/07/15 07:32:19;;;;;;;12.40;0.20;;;21.90;84.30;;;;;;5016147;28;20034;-76
2022/07/15 07:34:44;;;;;;;0.00;0.00;;;22.80;69.20;;;;;;5016164;28;20173;-76
2022/07/15 07:37:10;;;;;;;0.00;0.00;;;23.20;52.00;;;;;;5015916;28;20052;-76
2022/07/15 07:39:36;;;;;;;0.00;0.00;;;23.50;35.10;;;;;;5015814;28;20030;-76
2022/07/15 07:42:01;;;;;;;2.05;0.08;;;23.90;39.20;;;;;;5015693;28;20050;-75
2022/07/15 07:44:27;;;;;;;0.00;0.00;;;22.80;22.60;;;;;;5015842;28;20041;-76
2022/07/15 07:46:52;;;;;;;0.00;0.00;;;22.20;28.20;;;;;;5014351;28;20394;-76
2022/07/15 07:49:18;;;;;;;0.17;0.10;;;20.90;39.80;;;;;;5015784;28;20042;-76
2022/07/15 07:51:44;;;;;;;0.00;0.00;;;20.50;49.70;;;;;;5015488;28;20048;-76
2022/07/15 07:54:09;;;;;;;0.00;0.00;;;20.20;59.80;;;;;;5015426;28;20129;-76
2022/07/15 07:56:36;;;;;;;0.10;0.10;;;20.70;65.60;;;;;;5014915;28;20046;-76
2022/07/15 07:59:01;;;;;;;0.00;0.00;;;20.80;61.90;;;;;;5015317;28;20046;-75
2022/07/15 08:01:27;;;;;;;0.00;0.00;;;20.40;63.50;;;;;;5015445;28;20096;-75
2022/07/15 08:03:53;;;;;;;0.00;0.00;;;20.20;63.40;;;;;;5015203;28;20377;-76
2022/07/15 08:06:18;;;;;;;0.00;0.00;;;20.10;73.20;;;;;;5014554;28;20247;-76
2022/07/15 08:08:45;;;;;;;2.40;0.70;;;19.60;82.10;;;;;;5015106;28;20049;-76
2022/07/15 08:11:11;;;;;;;0.00;0.00;;;19.80;69.50;;;;;;5015143;28;20042;-76
2022/07/15 08:13:37;;;;;;;0.08;0.08;;;19.90;81.30;;;;;;5015427;28;20077;-76
2022/07/15 08:16:03;;;;;;;0.00;0.00;;;19.80;75.80;;;;;;5015101;28;20073;-76
2022/07/15 08:18:28;;;;;;;0.00;0.00;;;20.20;72.70;;;;;;5014931;28;20049;-76
2022/07/15 08:20:54;;;;;;;1.35;0.10;;;19.90;72.70;;;;;;5014679;28;20053;-76
2022/07/15 08:23:21;;;;;;;0.00;0.00;;;19.70;83.00;;;;;;5014815;28;20057;-75
2022/07/15 08:25:48;;;;;;;0.00;0.00;;;19.50;85.30;;;;;;5014853;28;20050;-75
2022/07/15 08:28:14;;;;;;;0.00;0.00;;;19.30;89.40;;;;;;5015097;28;20143;-75
2022/07/15 08:30:39;;;;;;;0.10;0.10;;;18.70;91.80;;;;;;5015011;28;20089;-76
2022/07/15 08:33:05;;;;;;;0.00;0.00;;;18.60;94.90;;;;;;5014682;28;20088;-76
2022/07/15 08:35:31;;;;;;;0.00;0.00;;;18.70;96.80;;;;;;5014752;28;20042;-75
2022/07/15 08:37:57;;;;;;;0.00;0.00;;;18.80;97.20;;;;;;5014339;28;20413;-76
2022/07/15 08:40:23;;;;;;;0.00;0.00;;;19.20;97.10;;;;;;5014554;28;20061;-76
2022/07/15 08:42:49;;;;;;;1.17;0.55;;;20.00;94.40;;;;;;5014947;28;20467;-76
2022/07/15 08:45:16;;;;;;;0.10;0.03;;;20.80;90.40;;;;;;5014634;28;20042;-75
2022/07/15 08:47:44;;;;;;;0.00;0.00;;;20.70;80.70;;;;;;5014511;28;20100;-76
2022/07/15 08:50:14;;;;;;;0.00;0.00;;;20.70;75.40;;;;;;5014428;28;20535;-76
2022/07/15 08:52:40;;;;;;;0.00;0.00;;;20.40;66.50;;;;;;5014154;28;20038;-76
2022/07/15 08:55:07;;;;;;;0.00;0.00;;;20.20;72.60;;;;;;5014339;28;20104;-76
2022/07/15 08:57:33;;;;;;;0.32;0.10;;;20.10;71.10;;;;;;5014224;28;20065;-76
2022/07/15 08:59:59;;;;;;;0.00;0.00;;;20.30;71.90;;;;;;5014395;28;20053;-76
2022/07/15 09:02:24;;;;;;;5.47;0.22;;;20.60;63.60;;;;;;5014321;28;20404;-76
2022/07/15 09:05:18;;;;;;;0.00;0.00;;;20.30;58.30;;;;;;5014115;28;20127;-76
2022/07/15 09:08:05;;;;;;;0.00;0.00;;;20.50;66.00;;;;;;5014507;28;20053;-76
2022/07/15 09:10:43;;;;;;;0.20;0.10;;;20.60;60.40;;;;;;5014446;28;20102;-76
2022/07/15 09:13:21;;;;;;;0.00;0.00;;;21.00;56.30;;;;;;5013957;28;20493;-76
2022/07/15 09:15:46;;;;;;;0.00;0.00;;;21.40;52.60;;;;;;5013827;28;20052;-75
2022/07/15 09:18:14;;;;;;;0.00;0.00;;;22.10;46.30;;;;;;5011743;28;20049;-76
2022/07/15 09:20:41;;;;;;;0.00;0.00;;;22.50;35.90;;;;;;5010896;28;20240;-77
2022/07/15 09:23:09;;;;;;;0.00;0.00;;;23.60;27.90;;;;;;5010813;28;20563;-77
2022/07/15 09:25:36;;;;;;;0.82;0.17;;;24.10;14.30;;;;;;5010958;28;20046;-76
2022/07/15 09:28:07;;;;;;;0.00;0.00;;;23.70;20.20;;;;;;5010698;28;20084;-76
2022/07/15 09:33:34;;;;;;;0.00;0.00;;;24.20;19.90;;;;;;5010732;28;20132;-76
2022/07/15 09:36:12;;;;;;;0.00;0.00;;;25.60;5.30;;;;;;5010597;28;20045;-76
2022/07/15 09:38:42;;;;;;;0.00;0.00;;;25.10;5.00;;;;;;5010274;28;20389;-77
2022/07/15 09:41:22;;;;;;;0.00;0.00;;;24.20;7.30;;;;;;5010493;28;20046;-76
2022/07/15 09:43:52;;;;;;;0.10;0.00;;;23.00;7.30;;;;;;5010499;28;20069;-76
2022/07/15 09:46:19;;;;;;;0.10;0.10;;;22.40;13.40;;;;;;5010919;28;20077;-75
2022/07/15 09:48:47;;;;;;;0.00;0.00;;;21.70;14.70;;;;;;5011348;28;20395;-72
2022/07/15 09:51:13;;;;;;;0.20;0.10;;;21.30;20.60;;;;;;5012509;28;20045;-74
2022/07/15 09:53:40;;;;;;;0.00;0.00;;;20.70;23.80;;;;;;5011699;28;20073;-74
2022/07/15 09:56:09;;;;;;;0.00;0.00;;;20.80;23.20;;;;;;5010200;28;20093;-74
2022/07/15 09:58:40;;;;;;;0.00;0.00;;;20.80;23.10;;;;;;5010523;28;20500;-74
2022/07/15 10:01:07;;;;;;;0.00;0.00;;;21.10;25.40;;;;;;5011171;28;20046;-76
2022/07/15 10:03:34;;;;;;;0.20;0.10;;;21.00;27.00;;;;;;5011617;28;20056;-74
2022/07/15 10:06:01;;;;;;;0.00;0.00;;;21.50;23.90;;;;;;5011123;28;20041;-74
2022/07/15 10:08:28;;;;;;;0.00;0.00;;;22.00;21.50;;;;;;5010336;28;20500;-74
2022/07/15 10:10:56;;;;;;;0.00;0.00;;;22.10;20.00;;;;;;5010207;28;20488;-74
2022/07/15 10:13:35;;;;;;;0.00;0.00;;;22.00;21.20;;;;;;5010697;28;20045;-75
2022/07/15 10:16:07;;;;;;;0.00;0.00;;;22.10;19.60;;;;;;5010311;28;20497;-73
2022/07/15 10:18:51;;;;;;;0.00;0.00;;;22.30;15.70;;;;;;5011066;28;20121;-74
2022/07/15 10:21:22;;;;;;;0.20;0.10;;;21.90;20.50;;;;;;5010965;28;20468;-74
2022/07/15 10:24:32;;;;;;;0.10;0.10;;;21.80;18.20;;;;;;5010193;28;20050;-75
2022/07/15 10:27:34;;;;;;;0.00;0.00;;;21.90;18.60;;;;;;4994884;28;20053;-73
2022/07/15 10:30:04;;;;;;;0.00;0.00;;;22.50;21.30;;;;;;5009796;28;20050;-74
2022/07/15 10:32:49;;;;;;;0.00;0.00;;;23.00;16.90;;;;;;5010079;28;20453;-73
2022/07/15 10:35:34;;;;;;;0.00;0.00;;;23.40;13.00;;;;;;5010091;28;20057;-76
2022/07/15 10:38:22;;;;;;;0.28;0.28;;;23.90;9.00;;;;;;5010958;28;20050;-76
2022/07/15 10:41:00;;;;;;;0.22;0.10;;;24.20;7.70;;;;;;5010440;28;20047;-77
2022/07/15 10:43:50;;;;;;;0.00;0.00;;;24.60;2.30;;;;;;5010597;28;20081;-75
2022/07/15 10:46:23;;;;;;;0.00;0.00;;;24.70;3.30;;;;;;5010505;28;20167;-75
2022/07/15 10:48:52;;;;;;;0.00;0.00;;;24.40;2.40;;;;;;5010319;28;20500;-76
2022/07/15 10:51:36;;;;;;;0.00;0.00;;;25.00;1.90;;;;;;5010742;28;20054;-76
2022/07/15 10:54:10;;;;;;;0.73;0.30;;;24.70;1.30;;;;;;5010360;28;20042;-75
2022/07/15 10:56:47;;;;;;;0.00;0.00;;;24.10;2.40;;;;;;5010212;28;20528;-75
2022/07/15 10:59:23;;;;;;;0.00;0.00;;;24.10;5.30;;;;;;5010570;28;20390;-75
2022/07/15 11:01:50;;;;;;;0.00;0.00;;;22.70;5.30;;;;;;5010867;28;20053;-75
2022/07/15 11:04:17;;;;;;;0.00;0.00;;;22.40;10.90;;;;;;5010281;28;20049;-75
2022/07/15 11:07:01;;;;;;;0.00;0.00;;;21.70;14.90;;;;;;5010158;28;20057;-75
2022/07/15 11:10:01;;;;;;;0.08;0.08;;;21.10;16.50;;;;;;5011287;28;20132;-75
2022/07/15 11:12:29;;;;;;;0.00;0.00;;;20.90;18.90;;;;;;5010837;28;20053;-76
2022/07/15 11:15:01;;;;;;;4.40;0.98;;;20.70;22.30;;;;;;5010477;28;20049;-76
2022/07/15 11:17:29;;;;;;;0.00;0.00;;;20.60;25.30;;;;;;5010430;28;20061;-75
2022/07/15 11:20:09;;;;;;;0.00;0.00;;;20.80;25.40;;;;;;5010085;28;20076;-76
2022/07/15 11:22:42;;;;;;;0.08;0.08;;;21.00;25.60;;;;;;5010030;28;20498;-76
2022/07/15 11:25:21;;;;;;;0.00;0.00;;;21.40;21.60;;;;;;5010095;28;20124;-75
2022/07/15 11:28:17;;;;;;;0.00;0.00;;;21.60;20.20;;;;;;5010064;28;20061;-75
2022/07/15 11:30:53;;;;;;;0.00;0.00;;;21.60;20.80;;;;;;5009111;28;20054;-76
2022/07/15 11:33:21;;;;;;;0.25;0.25;;;21.50;19.70;;;;;;5010216;28;20057;-75
2022/07/15 11:35:52;;;;;;;0.00;0.00;;;21.50;22.30;;;;;;5009640;28;20408;-75
2022/07/15 11:38:23;;;;;;;0.00;0.00;;;21.70;18.40;;;;;;5009683;28;20374;-76
2022/07/15 11:46:23;;;;;;;0.00;0.00;;;22.00;16.20;;;;;;5012779;28;20049;-75
2022/07/15 11:48:50;;;;;;;0.00;0.00;;;22.00;12.60;;;;;;5012730;28;20038;-75
2022/07/15 11:51:16;;;;;;;0.00;0.00;;;21.80;16.60;;;;;;5010456;28;20090;-76
2022/07/15 11:53:47;;;;;;;0.00;0.00;;;21.70;13.70;;;;;;5013162;28;20049;-76
2022/07/15 11:56:14;;;;;;;0.13;0.10;;;21.90;18.20;;;;;;5010332;28;20065;-76
2022/07/15 11:58:49;;;;;;;0.08;0.08;;;21.60;15.50;;;;;;5012687;28;20125;-76
2022/07/15 12:01:18;;;;;;;0.00;0.00;;;21.70;15.00;;;;;;5012839;28;20045;-76
2022/07/15 12:03:49;;;;;;;0.00;0.00;;;22.30;17.50;;;;;;5012849;28;20079;-75
2022/07/15 12:06:20;;;;;;;0.00;0.00;;;22.50;12.80;;;;;;5013459;28;20046;-75
2022/07/15 12:08:54;;;;;;;0.00;0.00;;;22.60;13.20;;;;;;5012984;28;20176;-75
2022/07/15 12:11:27;;;;;;;0.73;0.13;;;22.70;12.00;;;;;;5013688;28;20034;-75
2022/07/15 12:14:03;;;;;;;0.00;0.00;;;22.90;12.00;;;;;;5013378;28;20049;-75
2022/07/15 12:16:32;;;;;;;0.00;0.00;;;23.10;9.30;;;;;;5013306;28;20124;-75
2022/07/15 12:19:02;;;;;;;0.10;0.10;;;23.20;6.50;;;;;;5012349;28;20408;-75
2022/07/15 12:21:28;;;;;;;0.52;0.30;;;23.40;8.60;;;;;;5012754;28;20050;-76
2022/07/15 12:24:01;;;;;;;0.00;0.00;;;23.50;8.80;;;;;;5012477;28;20052;-77
2022/07/15 12:26:27;;;;;;;0.00;0.00;;;23.60;9.20;;;;;;5012805;28;20042;-75
2022/07/15 12:28:58;;;;;;;0.20;0.20;;;23.70;7.00;;;;;;5012919;28;20057;-76
2022/07/15 12:31:28;;;;;;;0.20;0.17;;;22.90;5.70;;;;;;5012610;28;20048;-76
2022/07/15 12:33:54;;;;;;;0.00;0.00;;;22.70;4.30;;;;;;5012598;28;20374;-76
2022/07/15 12:36:23;;;;;;;3.40;0.47;;;22.40;6.90;;;;;;5012493;28;20398;-76
2022/07/15 12:39:18;;;;;;;0.00;0.00;;;22.40;9.30;;;;;;5012175;28;20045;-75
2022/07/15 12:41:56;;;;;;;0.00;0.00;;;22.10;9.70;;;;;;5012344;28;20053;-75
2022/07/15 12:44:22;;;;;;;0.00;0.00;;;22.10;11.30;;;;;;5013493;28;20130;-75
2022/07/15 12:46:52;;;;;;;0.00;0.00;;;22.30;11.70;;;;;;5013753;28;20175;-75
2022/07/15 12:49:40;;;;;;;0.00;0.00;;;22.00;10.70;;;;;;5013218;28;20049;-76
2022/07/15 12:52:12;;;;;;;0.00;0.00;;;22.10;8.90;;;;;;5012516;28;20330;-75
2022/07/15 12:54:38;;;;;;;0.00;0.00;;;21.90;8.90;;;;;;5012497;28;20145;-76
2022/07/15 12:57:03;;;;;;;0.13;0.13;;;22.20;10.40;;;;;;5011969;28;20104;-76
2022/07/15 12:59:29;;;;;;;0.00;0.00;;;22.70;12.10;;;;;;5012394;28;20193;-75
2022/07/15 13:02:02;;;;;;;0.00;0.00;;;23.30;9.80;;;;;;5012295;28;20065;-75
2022/07/15 13:04:28;;;;;;;0.00;0.00;;;23.70;7.30;;;;;;5012768;28;20129;-76
2022/07/15 13:06:53;;;;;;;2.25;0.55;;;24.10;5.50;;;;;;5012653;28;20128;-75